Time;durP1;ratioP1;P1;durP2;ratioP2;P2;SDS_P1;SDS_P2;PMS_P1;PMS_P2;Temp;Humidity;BMP_temperature;BMP_pressure;BME280_temperature;BME280_humidity;BME280_pressure;Samples;Min_cycle;Max_cycle;Signal;HPM_P1;HPM_P2
2022/12/29 00:01:28;;;;;;;6.03;5.38;;;12.20;99.90;;;12.53;100.00;99712.47;5092141;28;20044;-63
2022/12/29 00:03:58;;;;;;;5.22;4.72;;;12.30;99.90;;;12.44;100.00;99699.50;5091922;28;20072;-64
2022/12/29 00:06:27;;;;;;;5.18;4.70;;;12.30;99.90;;;12.44;100.00;99688.88;5092208;28;20047;-65
2022/12/29 00:08:56;;;;;;;6.00;5.38;;;12.30;99.90;;;12.45;100.00;99715.34;5091974;28;20044;-64
2022/12/29 00:11:27;;;;;;;5.43;4.93;;;12.30;99.90;;;12.43;100.00;99711.88;5095074;28;20044;-64
2022/12/29 00:16:45;;;;;;;5.68;5.10;;;12.30;99.90;;;12.51;99.98;99656.81;5095692;28;20463;-64
2022/12/29 00:36:18;;;;;;;5.55;4.28;;;12.30;99.90;;;12.49;99.41;99668.38;5032932;28;20144;-63
2022/12/29 00:44:25;;;;;;;6.55;4.85;;;12.20;99.90;;;12.44;100.00;99649.13;5095145;28;20103;-63
2022/12/29 00:46:53;;;;;;;8.80;5.13;;;12.20;99.90;;;12.36;100.00;99638.75;5095308;28;20043;-64
2022/12/29 00:49:30;;;;;;;6.60;5.95;;;12.20;99.90;;;12.34;100.00;99672.41;5094951;28;20450;-64
2022/12/29 00:52:03;;;;;;;6.68;4.55;;;12.20;99.90;;;12.24;100.00;99643.53;5095195;28;20490;-63
2022/12/29 00:54:33;;;;;;;7.38;4.88;;;12.10;99.90;;;12.26;100.00;99645.25;5094882;28;20491;-64
2022/12/29 00:57:02;;;;;;;;;;;12.10;99.90;;;12.15;100.00;99628.81;5095498;28;20044;-64
2022/12/29 00:59:31;;;;;;;7.50;5.18;;;12.00;99.90;;;12.19;100.00;99659.63;5076749;28;19966;-64
2022/12/29 01:02:00;;;;;;;8.77;5.03;;;11.90;99.90;;;12.22;100.00;99643.59;5076687;28;20052;-63
2022/12/29 01:04:30;;;;;;;5.65;5.15;;;12.00;99.90;;;12.18;100.00;99631.34;5094647;28;20052;-62
2022/12/29 01:06:59;;;;;;;5.57;4.32;;;12.00;99.90;;;12.16;100.00;99656.16;5076517;28;20044;-63
2022/12/29 01:12:14;;;;;;;5.72;5.20;;;12.00;99.90;;;12.11;100.00;99639.53;5076740;28;20044;-63
2022/12/29 01:14:45;;;;;;;7.70;5.10;;;11.90;99.90;;;12.15;100.00;99720.72;5094737;28;20044;-63
2022/12/29 01:17:13;;;;;;;6.10;4.45;;;12.00;99.90;;;12.08;100.00;99668.81;5076799;28;20444;-63
2022/12/29 01:19:42;;;;;;;7.20;5.20;;;11.90;99.90;;;12.03;100.00;99673.34;5093668;28;20413;-63
2022/12/29 01:22:11;;;;;;;5.85;4.70;;;11.90;99.90;;;12.10;100.00;99667.81;5076392;28;20393;-63
2022/12/29 01:24:41;;;;;;;8.40;4.55;;;11.90;99.90;;;12.12;100.00;99673.06;5092993;28;20079;-63
2022/12/29 01:27:09;;;;;;;8.77;4.88;;;11.90;99.90;;;12.02;100.00;99656.56;5093177;28;20405;-63
2022/12/29 01:29:37;;;;;;;5.85;4.45;;;11.90;99.90;;;12.03;100.00;99660.97;5076070;28;20062;-63
2022/12/29 01:32:06;;;;;;;5.03;4.47;;;11.80;99.90;;;12.01;100.00;99648.69;5094269;28;20042;-63
2022/12/29 01:34:35;;;;;;;7.10;4.65;;;11.80;99.90;;;11.97;100.00;99647.03;5094337;28;20126;-63
2022/12/29 01:37:04;;;;;;;5.25;4.78;;;11.80;99.90;;;11.98;100.00;99652.28;5094169;28;20040;-63
2022/12/29 01:39:34;;;;;;;6.07;4.47;;;11.70;99.90;;;12.05;100.00;99653.84;5094088;28;20567;-63
2022/12/29 01:42:02;;;;;;;6.77;4.80;;;11.80;99.90;;;11.92;100.00;99648.97;5093028;28;20043;-63
2022/12/29 01:44:53;;;;;;;6.50;4.68;;;11.70;99.90;;;12.00;100.00;99646.97;5093952;28;20040;-63
2022/12/29 01:47:38;;;;;;;5.82;5.32;;;11.80;99.90;;;12.04;100.00;99645.94;5092865;28;20135;-63
2022/12/29 01:50:12;;;;;;;8.48;4.30;;;11.80;99.90;;;12.02;100.00;99640.66;5093820;28;20036;-63
2022/12/29 01:52:51;;;;;;;8.60;5.00;;;11.80;99.90;;;12.00;100.00;99652.25;5093813;28;20493;-62
2022/12/29 01:55:21;;;;;;;9.63;4.57;;;11.80;99.90;;;12.06;100.00;99662.69;5093961;28;20135;-63
2022/12/29 01:57:53;;;;;;;7.63;4.35;;;11.80;99.90;;;12.10;100.00;99653.72;5092653;28;20081;-62
2022/12/29 02:00:21;;;;;;;9.02;4.68;;;11.90;99.90;;;11.97;100.00;99637.31;5092442;28;20052;-63
2022/12/29 02:02:53;;;;;;;7.50;4.68;;;11.80;99.90;;;12.12;100.00;99659.81;5092197;28;20047;-63
2022/12/29 02:05:29;;;;;;;8.07;5.03;;;11.90;99.90;;;12.08;100.00;99635.19;5093509;28;20160;-64
2022/12/29 02:07:58;;;;;;;8.07;4.70;;;11.90;99.90;;;12.08;100.00;99650.25;5093711;28;20048;-63
2022/12/29 02:10:31;;;;;;;10.77;5.00;;;11.80;99.90;;;12.11;100.00;99666.94;5093782;28;20054;-62
2022/12/29 02:12:59;;;;;;;11.50;4.18;;;11.90;99.90;;;12.00;99.83;99612.50;5092223;28;20057;-62
2022/12/29 02:15:42;;;;;;;9.70;4.47;;;11.90;99.90;;;12.17;99.60;99645.53;5093424;28;20082;-62
2022/12/29 02:18:26;;;;;;;14.10;4.85;;;11.90;99.90;;;12.10;100.00;99630.72;5093337;28;20397;-62
2022/12/29 02:21:31;;;;;;;15.73;5.70;;;11.90;99.90;;;12.09;100.00;99642.25;5092091;28;20048;-62
2022/12/29 02:24:44;;;;;;;16.60;5.55;;;11.90;99.90;;;12.06;100.00;99650.28;5075115;28;20143;-63
2022/12/29 02:27:58;;;;;;;13.45;4.38;;;11.80;99.90;;;12.01;100.00;99653.97;5090218;28;20497;-63
2022/12/29 02:30:54;;;;;;;11.52;4.85;;;11.70;99.90;;;12.02;100.00;99664.53;5063760;28;20040;-63
2022/12/29 02:33:42;;;;;;;9.18;4.47;;;11.80;99.90;;;11.78;100.00;99652.00;5092846;28;20398;-63
2022/12/29 02:36:24;;;;;;;11.55;5.20;;;11.70;99.90;;;12.02;100.00;99653.09;5091858;28;20440;-63
2022/12/29 02:39:03;;;;;;;12.05;4.53;;;11.70;99.90;;;11.76;100.00;99651.19;5091645;28;20044;-63
2022/12/29 02:41:34;;;;;;;15.05;4.80;;;11.50;99.90;;;11.76;100.00;99646.75;5074990;28;20147;-62
2022/12/29 02:44:11;;;;;;;13.25;5.05;;;11.50;99.90;;;11.72;100.00;99658.34;5092897;28;20042;-62
2022/12/29 02:46:49;;;;;;;13.57;5.03;;;11.50;99.90;;;11.58;99.82;99649.00;5074810;28;20140;-60
2022/12/29 02:49:26;;;;;;;18.90;5.82;;;11.40;99.90;;;11.63;99.81;99644.47;5092786;28;20110;-60
2022/12/29 02:51:59;;;;;;;16.08;5.55;;;11.40;99.90;;;11.71;98.84;99666.34;5092973;28;20044;-60
2022/12/29 02:54:43;;;;;;;21.15;6.70;;;11.40;99.90;;;11.63;97.97;99626.78;5091595;28;20043;-60
2022/12/29 02:57:27;;;;;;;16.52;6.32;;;11.40;99.90;;;11.67;97.40;99639.06;5074771;28;20048;-63
2022/12/29 03:00:02;;;;;;;17.63;5.40;;;11.50;99.90;;;11.56;97.06;99629.66;5074593;28;20105;-61
2022/12/29 03:03:06;;;;;;;25.50;6.70;;;11.50;99.90;;;11.71;97.04;99653.94;5091325;28;20052;-61
2022/12/29 03:06:11;;;;;;;24.52;5.70;;;11.50;99.90;;;11.70;96.56;99646.94;5091484;28;20351;-60
2022/12/29 03:08:50;;;;;;;17.17;5.25;;;11.50;99.90;;;11.81;96.14;99632.53;5074763;28;20059;-61
2022/12/29 03:17:10;;;;;;;13.70;5.18;;;11.60;99.90;;;11.68;95.32;99626.69;5091352;28;20102;-62
2022/12/29 03:19:46;;;;;;;14.48;5.32;;;11.60;99.90;;;11.81;95.35;99648.41;5091472;28;20494;-63
2022/12/29 03:22:31;;;;;;;11.07;5.35;;;11.60;99.90;;;11.81;95.36;99611.31;5092594;28;20075;-63
2022/12/29 03:25:16;;;;;;;12.57;4.85;;;11.60;99.90;;;11.89;95.57;99633.13;5074545;28;20414;-62
2022/12/29 03:27:50;;;;;;;12.82;5.75;;;11.60;99.90;;;11.28;95.25;99518.41;5074455;28;20051;-62
2022/12/29 03:30:20;;;;;;;10.50;5.10;;;11.60;99.90;;;11.43;95.08;99570.91;5091147;28;20075;-63
2022/12/29 03:32:53;;;;;;;16.80;5.97;;;11.60;99.90;;;11.90;94.95;99656.97;5092782;28;20064;-62
2022/12/29 03:35:29;;;;;;;14.40;5.40;;;11.70;99.90;;;11.88;94.84;99642.00;5074162;28;20109;-63
2022/12/29 03:38:06;;;;;;;15.10;5.35;;;11.70;99.90;;;11.81;94.80;99640.47;5091297;28;20131;-62
2022/12/29 03:40:35;;;;;;;12.98;5.07;;;11.60;99.90;;;11.81;94.56;99613.97;5092403;28;20425;-63
2022/12/29 03:43:05;;;;;;;10.82;4.65;;;11.70;99.90;;;11.71;94.58;99640.72;5092252;28;20040;-62
2022/12/29 03:45:36;;;;;;;12.82;5.30;;;11.60;99.90;;;11.78;94.58;99657.31;5075893;28;20055;-63
2022/12/29 03:48:05;;;;;;;11.73;4.80;;;11.60;99.90;;;11.78;94.60;99647.59;5096410;28;20126;-62
2022/12/29 03:50:39;;;;;;;15.65;5.40;;;11.60;99.90;;;11.76;93.92;99636.16;5077977;28;20044;-62
2022/12/29 03:53:08;;;;;;;16.27;5.30;;;11.60;99.90;;;11.85;94.00;99634.13;5078090;28;20052;-62
2022/12/29 03:55:36;;;;;;;17.27;5.85;;;11.60;99.90;;;11.75;93.82;99645.00;5095145;28;20479;-62
2022/12/29 03:58:05;;;;;;;14.82;5.97;;;11.60;99.90;;;11.69;93.46;99626.66;5095973;28;20119;-62
2022/12/29 04:01:02;;;;;;;18.95;5.50;;;11.50;99.90;;;11.65;93.04;99629.41;5078101;28;20102;-62
2022/12/29 04:03:33;;;;;;;;;;;11.50;99.90;;;11.60;92.47;99631.31;5094846;28;20079;-62
2022/12/29 04:06:03;;;;;;;20.35;6.28;;;11.40;99.90;;;11.42;92.22;99619.44;5094645;28;19943;-63
2022/12/29 04:08:54;;;;;;;23.02;6.00;;;11.40;99.90;;;11.59;92.46;99643.66;5095541;28;20047;-62
2022/12/29 04:11:23;;;;;;;20.33;5.93;;;11.40;99.90;;;11.37;92.78;99624.00;5094552;28;20052;-63
2022/12/29 04:14:01;;;;;;;33.88;6.53;;;11.30;99.90;;;11.55;93.06;99657.94;5077619;28;20044;-63
2022/12/29 04:16:31;;;;;;;25.83;6.72;;;11.30;99.90;;;11.49;93.59;99652.81;5077618;28;20032;-62
2022/12/29 04:19:01;;;;;;;19.48;6.43;;;11.30;99.90;;;11.38;94.24;99643.41;5094265;28;20051;-63
2022/12/29 04:21:30;;;;;;;22.45;6.28;;;11.20;99.90;;;11.40;94.51;99655.69;5094502;28;20378;-63
2022/12/29 04:23:59;;;;;;;23.08;6.15;;;11.20;99.90;;;11.36;94.90;99651.38;5077628;28;20087;-63
2022/12/29 04:26:28;;;;;;;20.92;5.78;;;11.20;99.90;;;11.37;95.78;99658.44;5094182;28;20480;-62
2022/12/29 04:29:03;;;;;;;19.30;5.28;;;11.10;99.90;;;11.32;96.18;99660.34;5094190;28;20048;-62
2022/12/29 04:31:41;;;;;;;23.98;7.15;;;11.10;99.90;;;11.29;97.23;99651.59;5076973;28;20044;-62
2022/12/29 04:34:10;;;;;;;21.17;6.68;;;11.10;99.90;;;11.32;97.96;99657.69;5077315;28;20052;-63
2022/12/29 04:36:40;;;;;;;20.58;5.68;;;11.10;99.90;;;11.32;97.98;99663.00;5077188;28;20052;-62
2022/12/29 04:39:09;;;;;;;20.98;6.10;;;11.10;99.90;;;11.35;98.10;99668.19;5094048;28;20497;-62
2022/12/29 04:41:40;;;;;;;16.38;5.47;;;11.10;99.90;;;11.39;98.13;99680.44;5077245;28;20044;-62
2022/12/29 04:44:14;;;;;;;21.52;5.85;;;11.10;99.90;;;11.28;97.97;99650.75;5093695;28;20044;-62
2022/12/29 04:47:05;;;;;;;19.77;5.22;;;11.10;99.90;;;11.14;98.09;99670.53;5086565;28;20117;-63
2022/12/29 04:49:55;;;;;;;15.65;5.28;;;11.00;99.90;;;11.34;98.09;99677.03;5093808;28;20409;-62
2022/12/29 04:52:46;;;;;;;17.38;6.07;;;11.10;99.90;;;11.32;97.74;99680.66;5093771;28;20048;-62
2022/12/29 04:55:15;;;;;;;19.42;6.00;;;11.10;99.90;;;11.35;97.66;99678.78;5093740;28;20047;-62
2022/12/29 04:57:45;;;;;;;21.15;6.35;;;11.10;99.90;;;11.44;97.46;99693.56;5094750;28;20489;-62
2022/12/29 05:00:18;;;;;;;20.85;6.18;;;11.20;99.90;;;11.10;97.60;99639.75;5093583;28;20371;-62
2022/12/29 05:02:48;;;;;;;25.98;6.50;;;11.20;99.90;;;11.11;98.20;99641.50;5076414;28;20070;-63
2022/12/29 05:05:17;;;;;;;16.27;6.32;;;11.20;99.90;;;11.30;98.59;99675.41;5076732;28;20052;-62
2022/12/29 05:07:51;;;;;;;20.08;6.55;;;11.10;99.90;;;11.26;99.34;99688.75;5076701;28;20048;-63
2022/12/29 05:10:19;;;;;;;18.30;5.80;;;11.00;99.90;;;11.23;99.91;99694.97;5076452;28;20040;-62
2022/12/29 05:12:50;;;;;;;21.50;6.18;;;11.00;99.90;;;11.20;100.00;99686.25;5076470;28;20308;-62
2022/12/29 05:15:19;;;;;;;20.50;6.35;;;11.00;99.90;;;11.27;100.00;99682.53;5093137;28;20513;-63
2022/12/29 05:17:47;;;;;;;26.25;7.38;;;11.00;99.90;;;11.23;100.00;99686.16;5076761;28;20480;-63
2022/12/29 05:20:16;;;;;;;21.35;6.28;;;11.00;99.90;;;11.04;100.00;99655.78;5093250;28;20051;-63
2022/12/29 05:22:44;;;;;;;25.50;6.20;;;11.00;99.90;;;11.17;100.00;99683.69;5093176;28;20048;-63
2022/12/29 05:25:14;;;;;;;23.55;6.03;;;11.00;99.90;;;11.21;99.70;99685.31;5094214;28;20444;-62
2022/12/29 05:27:53;;;;;;;25.58;7.15;;;11.00;99.90;;;11.16;99.39;99674.00;5076156;28;20127;-62
2022/12/29 05:30:41;;;;;;;19.50;6.63;;;11.00;99.90;;;11.13;98.91;99697.91;5076219;28;20071;-63
2022/12/29 05:33:11;;;;;;;25.90;6.97;;;11.00;99.90;;;11.21;98.86;99695.91;5075954;28;20555;-63
2022/12/29 05:35:40;;;;;;;26.27;7.03;;;11.00;99.90;;;11.12;98.52;99691.75;5076116;28;20135;-63
2022/12/29 05:38:09;;;;;;;32.42;7.03;;;10.90;99.90;;;11.17;98.67;99705.72;5092783;28;20067;-63
2022/12/29 05:40:40;;;;;;;26.58;7.13;;;10.90;99.90;;;11.14;99.05;99699.63;5092660;28;20132;-62
2022/12/29 05:43:20;;;;;;;30.30;6.72;;;10.90;99.90;;;11.11;99.65;99711.16;5092846;28;20051;-62
2022/12/29 05:46:09;;;;;;;26.33;6.57;;;10.90;99.90;;;11.16;100.00;99693.41;5092705;28;20127;-63
2022/12/29 05:48:57;;;;;;;28.30;6.97;;;10.90;99.90;;;11.03;100.00;99718.44;5075732;28;20060;-62
2022/12/29 05:51:51;;;;;;;34.78;8.18;;;10.80;99.90;;;11.01;100.00;99714.97;5092549;28;20040;-62
2022/12/29 05:54:19;;;;;;;26.63;6.78;;;10.80;99.90;;;10.90;100.00;99723.16;5092550;28;20078;-62
2022/12/29 05:56:49;;;;;;;25.13;6.93;;;10.70;99.90;;;10.99;100.00;99719.44;5092422;28;20056;-63
2022/12/29 05:59:17;;;;;;;31.63;7.67;;;10.70;99.90;;;10.89;100.00;99717.91;5092311;28;20052;-63
2022/12/29 06:01:46;;;;;;;28.35;6.72;;;10.70;99.90;;;10.76;100.00;99704.09;5075574;28;20048;-62
2022/12/29 06:04:15;;;;;;;32.35;6.97;;;10.70;99.90;;;10.92;100.00;99717.81;5092144;28;20454;-62
2022/12/29 06:06:44;;;;;;;26.33;7.30;;;10.70;99.90;;;10.87;100.00;99722.38;5092185;28;20463;-62
2022/12/29 06:09:21;;;;;;;22.08;6.50;;;10.60;99.90;;;10.90;100.00;99722.28;5091750;28;20050;-63
2022/12/29 06:11:51;;;;;;;33.33;7.70;;;10.70;99.90;;;10.81;99.84;99720.75;5091959;28;20487;-63
2022/12/29 06:14:20;;;;;;;26.92;6.97;;;10.60;99.90;;;10.86;99.50;99728.53;5092304;28;20168;-63
2022/12/29 06:16:48;;;;;;;29.77;7.95;;;10.60;99.90;;;10.86;98.73;99725.91;5075304;28;20398;-62
2022/12/29 06:19:17;;;;;;;28.58;7.28;;;10.60;99.90;;;10.86;98.00;99734.72;5092061;28;20477;-63
2022/12/29 06:21:46;;;;;;;26.35;7.03;;;10.60;99.90;;;10.78;97.10;99728.72;5092074;28;20417;-62
2022/12/29 06:24:15;;;;;;;29.88;7.97;;;10.60;99.90;;;10.79;96.15;99717.25;5091810;28;20056;-63
2022/12/29 06:26:43;;;;;;;33.38;8.20;;;10.60;99.90;;;10.77;94.91;99734.06;5092080;28;20036;-62
2022/12/29 06:29:16;;;;;;;35.13;7.85;;;10.60;99.90;;;10.75;93.94;99718.22;5091937;28;20051;-62
2022/12/29 06:31:45;;;;;;;31.33;8.32;;;10.60;99.90;;;10.77;93.60;99724.34;5091794;28;20043;-62
2022/12/29 06:34:14;;;;;;;29.80;7.65;;;10.60;99.90;;;10.70;93.22;99729.81;5091751;28;20040;-62
2022/12/29 06:36:43;;;;;;;28.83;7.05;;;10.60;99.90;;;10.76;93.19;99730.53;5092946;28;20429;-62
2022/12/29 06:39:12;;;;;;;30.27;7.35;;;10.50;99.90;;;10.71;93.13;99728.91;5093186;28;20051;-63
2022/12/29 06:41:49;;;;;;;30.10;7.45;;;10.50;99.90;;;10.66;93.46;99722.88;5091709;28;20055;-62
2022/12/29 06:44:52;;;;;;;;;;;10.50;99.90;;;10.70;94.01;99721.91;5059116;28;20080;-62
2022/12/29 06:47:20;;;;;;;32.80;8.23;;;10.50;99.90;;;10.68;93.75;99724.56;5092825;28;19969;-62
2022/12/29 06:49:48;;;;;;;23.50;6.78;;;10.50;99.90;;;10.70;93.93;99724.53;5093034;28;20042;-62
2022/12/29 06:52:17;;;;;;;32.67;7.55;;;10.50;99.90;;;10.60;93.73;99723.00;5092645;28;20043;-63
2022/12/29 06:54:45;;;;;;;25.80;7.25;;;10.40;99.90;;;10.71;93.36;99740.38;5074595;28;20139;-62
2022/12/29 06:57:14;;;;;;;34.28;6.57;;;10.40;99.90;;;10.68;93.42;99758.09;5092648;28;20413;-62
2022/12/29 06:59:42;;;;;;;22.75;6.00;;;10.40;99.90;;;10.71;93.34;99758.88;5092537;28;20078;-63
2022/12/29 07:02:14;;;;;;;22.67;7.47;;;10.50;99.90;;;10.81;93.10;99733.09;5092683;28;20131;-62
2022/12/29 07:04:42;;;;;;;21.08;6.47;;;10.50;99.90;;;10.79;93.20;99749.00;5092781;28;20482;-62
2022/12/29 07:07:11;;;;;;;18.10;5.22;;;10.60;99.90;;;10.47;93.49;99710.97;5092369;28;20048;-62
2022/12/29 07:09:39;;;;;;;21.65;5.72;;;10.50;99.90;;;10.70;93.70;99754.47;5092194;28;20044;-63
2022/12/29 07:12:07;;;;;;;23.63;7.03;;;10.50;99.90;;;10.75;93.81;99757.03;5092137;28;20047;-62
2022/12/29 07:14:36;;;;;;;21.48;5.75;;;10.50;99.90;;;10.72;93.75;99743.88;5092379;28;20047;-63
2022/12/29 07:17:12;;;;;;;24.98;6.90;;;10.60;99.90;;;10.87;93.87;99762.03;5074620;28;20474;-62
2022/12/29 07:19:41;;;;;;;21.98;6.07;;;10.70;99.90;;;10.75;93.85;99722.66;5094704;28;20048;-62
2022/12/29 07:22:10;;;;;;;23.05;6.25;;;10.70;99.90;;;10.90;94.14;99756.66;5096817;28;20499;-62
2022/12/29 07:24:38;;;;;;;25.23;6.60;;;10.70;99.90;;;10.86;94.05;99741.75;5096625;28;20067;-62
2022/12/29 07:27:07;;;;;;;25.88;6.70;;;10.70;99.90;;;11.04;93.50;99745.75;5096537;28;20131;-62
2022/12/29 07:29:38;;;;;;;28.70;7.07;;;10.80;99.90;;;10.97;93.67;99750.34;5096500;28;20454;-62
2022/12/29 07:32:06;;;;;;;25.90;7.32;;;10.80;99.90;;;10.97;93.41;99750.34;5078406;28;20560;-62
2022/12/29 07:34:36;;;;;;;34.05;8.55;;;10.80;99.90;;;10.99;93.45;99750.28;5096333;28;20071;-62
2022/12/29 07:37:04;;;;;;;29.63;7.95;;;10.80;99.90;;;10.95;93.08;99730.13;5095097;28;20064;-62
2022/12/29 07:39:33;;;;;;;30.17;7.75;;;10.80;99.90;;;10.95;93.00;99728.34;5096319;28;20034;-63
2022/12/29 07:42:01;;;;;;;25.02;8.35;;;10.80;99.90;;;10.84;92.64;99727.69;5096280;28;20051;-64
2022/12/29 07:44:40;;;;;;;33.17;9.65;;;10.80;99.90;;;11.01;92.20;99738.78;5095038;28;20483;-63
2022/12/29 07:47:20;;;;;;;27.08;8.40;;;10.80;99.90;;;11.08;91.58;99740.34;5096179;28;20056;-64
2022/12/29 07:49:49;;;;;;;32.67;9.05;;;10.90;99.90;;;11.13;91.28;99746.38;5077630;28;20135;-64
2022/12/29 07:52:18;;;;;;;27.13;8.43;;;10.90;99.90;;;11.13;90.77;99738.44;5096169;28;20130;-64
2022/12/29 07:54:46;;;;;;;29.83;8.95;;;10.90;99.90;;;11.11;90.48;99727.03;5095947;28;20047;-64
2022/12/29 07:57:15;;;;;;;33.08;8.75;;;11.00;99.90;;;11.01;90.46;99711.44;5096144;28;20064;-64
2022/12/29 07:59:43;;;;;;;28.13;9.45;;;11.00;99.90;;;11.23;89.82;99762.91;5095986;28;20036;-64
2022/12/29 08:02:12;;;;;;;32.00;10.05;;;11.00;99.90;;;11.17;89.70;99766.59;5095781;28;20076;-64
2022/12/29 08:04:40;;;;;;;27.65;8.80;;;11.00;99.90;;;11.18;90.44;99763.03;5096082;28;20062;-64
2022/12/29 08:07:10;;;;;;;32.72;8.98;;;11.00;99.90;;;11.07;91.68;99730.66;5095796;28;20451;-64
2022/12/29 08:09:39;;;;;;;32.72;7.57;;;11.00;99.90;;;10.76;91.71;99727.03;5077533;28;20079;-64
2022/12/29 08:12:10;;;;;;;31.58;7.93;;;10.90;99.90;;;11.19;91.77;99770.06;5095538;28;20451;-64
2022/12/29 08:14:38;;;;;;;27.95;7.15;;;10.90;99.90;;;10.97;91.22;99717.72;5095511;28;20127;-65
2022/12/29 08:17:07;;;;;;;26.30;7.30;;;10.90;99.90;;;11.10;92.12;99766.78;5095620;28;20078;-64
2022/12/29 08:19:35;;;;;;;29.92;7.32;;;10.90;99.90;;;11.10;92.02;99761.47;5077554;28;20574;-64
2022/12/29 08:22:03;;;;;;;23.38;6.93;;;10.90;99.90;;;11.06;92.59;99773.03;5095498;28;20032;-64
2022/12/29 08:24:33;;;;;;;30.92;6.88;;;10.90;99.90;;;11.01;92.88;99809.34;5095529;28;20409;-63
2022/12/29 08:27:01;;;;;;;27.38;6.90;;;10.80;99.90;;;10.91;93.31;99776.94;5095414;28;20043;-63
2022/12/29 08:29:43;;;;;;;28.23;6.93;;;10.80;99.90;;;10.82;94.16;99783.28;5095477;28;20127;-63
2022/12/29 08:32:11;;;;;;;30.10;7.55;;;10.60;99.90;;;10.78;94.89;99794.00;5094621;28;20048;-63
2022/12/29 08:34:40;;;;;;;29.67;7.53;;;10.60;99.90;;;10.79;95.88;99807.19;5095250;28;20047;-63
2022/12/29 08:37:08;;;;;;;31.10;7.25;;;10.60;99.90;;;10.71;97.04;99795.03;5095259;28;20036;-63
2022/12/29 08:39:38;;;;;;;35.03;7.63;;;10.50;99.90;;;10.64;98.99;99814.59;5077016;28;20052;-66
2022/12/29 08:42:06;;;;;;;31.02;6.95;;;10.40;99.90;;;10.62;99.98;99816.38;5095079;28;20044;-64
2022/12/29 08:44:35;;;;;;;30.27;7.68;;;10.40;99.90;;;10.60;100.00;99818.19;5093842;28;20048;-64
2022/12/29 08:47:03;;;;;;;32.88;7.97;;;10.40;99.90;;;10.52;100.00;99862.44;5077116;28;20044;-65
2022/12/29 08:49:33;;;;;;;29.45;7.63;;;10.30;99.90;;;10.41;100.00;99809.78;5095096;28;20044;-63
2022/12/29 08:52:01;;;;;;;29.80;6.60;;;10.30;99.90;;;10.47;100.00;99836.06;5095003;28;20405;-63
2022/12/29 08:54:29;;;;;;;24.83;7.20;;;10.30;99.90;;;10.50;100.00;99832.50;5094752;28;20541;-63
2022/12/29 08:57:00;;;;;;;34.95;7.60;;;10.30;99.90;;;9.92;100.00;99727.09;5076931;28;20126;-64
2022/12/29 08:59:36;;;;;;;33.17;7.00;;;10.30;99.90;;;10.51;100.00;99840.41;5076776;28;20052;-63
2022/12/29 09:02:04;;;;;;;27.17;6.65;;;10.30;99.90;;;10.34;100.00;99831.94;5076699;28;20048;-64
2022/12/29 09:04:33;;;;;;;33.33;7.68;;;10.20;99.90;;;10.49;100.00;99862.50;5094530;28;20056;-63
2022/12/29 09:07:02;;;;;;;25.15;6.93;;;10.30;99.90;;;10.34;100.00;99825.78;5094506;28;20040;-65
2022/12/29 09:09:30;;;;;;;28.75;8.07;;;10.30;99.90;;;10.34;100.00;99816.09;5094788;28;20028;-64
2022/12/29 09:12:00;;;;;;;26.45;7.07;;;10.40;99.90;;;10.43;100.00;99841.47;5094629;28;20044;-64
2022/12/29 09:14:28;;;;;;;28.33;7.80;;;10.30;99.90;;;10.55;100.00;99857.09;5094466;28;20564;-65
2022/12/29 09:19:43;;;;;;;38.60;7.95;;;10.40;99.90;;;10.58;100.00;99851.72;5076238;28;20044;-64
2022/12/29 09:22:11;;;;;;;26.13;6.30;;;10.40;99.90;;;10.58;100.00;99859.66;5094783;28;20054;-65
2022/12/29 09:24:40;;;;;;;27.48;6.80;;;10.40;99.90;;;10.57;100.00;99876.41;5094296;28;20068;-64
2022/12/29 09:27:09;;;;;;;33.45;7.03;;;10.40;99.90;;;10.63;100.00;99876.28;5094290;28;20374;-65
2022/12/29 09:29:38;;;;;;;24.10;6.82;;;10.40;99.90;;;10.63;100.00;99871.00;5094233;28;20044;-65
2022/12/29 09:32:07;;;;;;;24.85;7.38;;;10.50;99.90;;;10.70;100.00;99905.22;5094078;28;20060;-64
2022/12/29 09:34:40;;;;;;;32.45;7.32;;;10.50;99.90;;;10.71;100.00;99911.38;5094162;28;20036;-64
2022/12/29 09:37:08;;;;;;;30.85;7.32;;;10.50;99.90;;;10.75;100.00;99907.78;5094248;28;20047;-63
2022/12/29 09:39:37;;;;;;;33.53;7.90;;;10.50;99.90;;;10.75;100.00;99905.13;5094168;28;20052;-66
2022/12/29 09:42:20;;;;;;;35.85;7.82;;;10.50;99.90;;;10.33;100.00;99819.66;5075048;28;20040;-63
2022/12/29 09:45:02;;;;;;;35.22;7.85;;;10.60;99.90;;;10.69;100.00;99898.19;5094143;28;20093;-63
2022/12/29 09:47:31;;;;;;;38.65;8.48;;;10.70;99.90;;;10.95;100.00;99934.69;5093945;28;20044;-63
2022/12/29 09:50:05;;;;;;;38.92;8.43;;;10.70;99.90;;;10.83;100.00;99921.72;5093900;28;20044;-62
2022/12/29 09:52:39;;;;;;;40.10;8.90;;;10.70;99.90;;;10.93;100.00;99932.97;5093859;28;20044;-62
2022/12/29 09:55:15;;;;;;;40.63;9.38;;;10.70;99.90;;;11.01;100.00;99941.63;5092319;28;20040;-62
2022/12/29 09:57:49;;;;;;;42.30;8.90;;;10.80;99.90;;;11.10;100.00;99968.78;5093855;28;20131;-64
2022/12/29 10:00:21;;;;;;;46.55;9.65;;;10.80;99.90;;;10.77;100.00;99940.34;5093608;28;20071;-62
2022/12/29 10:02:55;;;;;;;45.25;9.27;;;10.80;99.90;;;11.03;100.00;99961.00;5093247;28;20109;-63
2022/12/29 10:05:40;;;;;;;46.60;9.75;;;10.80;99.90;;;11.06;100.00;99972.38;5093482;28;20058;-62
2022/12/29 10:08:26;;;;;;;44.20;9.65;;;10.90;99.90;;;11.09;100.00;99982.88;5093559;28;20044;-62
2022/12/29 10:11:00;;;;;;;36.03;9.07;;;10.90;99.90;;;11.22;100.00;100002.94;5093486;28;20044;-62
2022/12/29 10:13:43;;;;;;;43.88;9.55;;;11.00;99.90;;;11.22;100.00;99994.09;5093356;28;20045;-62
2022/12/29 10:16:19;;;;;;;47.88;9.57;;;11.00;99.90;;;11.30;100.00;100013.34;5092326;28;20040;-63
2022/12/29 10:19:10;;;;;;;47.08;9.15;;;11.00;99.90;;;11.34;100.00;100005.28;5093365;28;20051;-62
2022/12/29 10:21:48;;;;;;;;;;;11.10;99.90;;;11.23;100.00;99986.13;5093699;28;20074;-62
2022/12/29 10:24:20;;;;;;;37.25;8.93;;;11.10;99.90;;;11.19;100.00;99989.75;5093415;28;19924;-63
2022/12/29 10:26:52;;;;;;;51.85;10.48;;;11.10;99.90;;;11.37;100.00;100014.94;5093271;28;20130;-63
2022/12/29 10:29:27;;;;;;;42.05;9.20;;;11.20;99.90;;;11.37;99.73;100018.47;5093143;28;20044;-62
2022/12/29 10:32:00;;;;;;;43.63;10.68;;;11.10;99.90;;;11.48;98.85;100023.53;5093277;28;20079;-62
2022/12/29 10:34:35;;;;;;;44.45;10.30;;;11.20;99.90;;;11.47;98.36;100012.09;5092984;28;20040;-62
2022/12/29 10:37:12;;;;;;;46.55;9.48;;;11.40;99.90;;;12.03;97.78;100047.03;5093125;28;20125;-63
2022/12/29 10:39:47;;;;;;;44.22;9.73;;;11.70;99.90;;;12.29;96.37;100039.34;5093091;28;20048;-63
2022/12/29 10:42:26;;;;;;;44.85;9.85;;;12.00;99.90;;;12.54;93.26;100032.50;5093127;28;20051;-63
2022/12/29 10:44:57;;;;;;;46.30;10.40;;;12.30;99.90;;;12.86;91.66;100048.44;5092986;28;20103;-62
2022/12/29 10:47:30;;;;;;;31.35;8.50;;;12.60;99.90;;;13.08;89.58;100036.38;5091494;28;20054;-63
2022/12/29 10:50:01;;;;;;;40.35;8.75;;;12.90;99.90;;;13.27;88.12;100058.84;5092725;28;20044;-63
2022/12/29 10:52:31;;;;;;;42.25;9.90;;;13.00;99.90;;;13.47;87.29;100061.78;5092809;28;20490;-62
2022/12/29 10:55:03;;;;;;;50.80;10.70;;;13.20;99.90;;;13.64;87.01;100049.78;5092321;28;20444;-63
2022/12/29 10:57:36;;;;;;;38.63;9.80;;;13.40;99.90;;;13.63;86.41;100059.53;5092686;28;20119;-62
2022/12/29 11:00:14;;;;;;;55.38;10.52;;;13.40;99.90;;;13.70;85.93;100060.22;5091928;28;20052;-63
2022/12/29 11:03:14;;;;;;;40.05;9.75;;;13.50;99.90;;;13.86;85.06;100074.81;5091240;28;20071;-63
2022/12/29 11:05:47;;;;;;;;;;;13.70;99.90;;;13.88;83.42;100080.97;5092980;28;20066;-63
2022/12/29 11:08:21;;;;;;;34.08;8.23;;;13.70;99.90;;;13.52;81.14;100083.78;5092606;28;20014;-63
2022/12/29 11:11:01;;;;;;;26.92;7.45;;;13.50;99.90;;;13.36;80.93;100085.13;5092597;28;20485;-63
2022/12/29 11:13:32;;;;;;;26.97;7.17;;;13.30;99.90;;;13.14;81.40;100094.59;5092734;28;20051;-62